createdAt,value
2019-05-01T00:02:34.216Z,99774.66
2019-05-01T00:05:38.993Z,99770.58
2019-05-01T00:08:40.993Z,99778.13
2019-05-01T00:11:43.081Z,99776.79
2019-05-01T00:14:45.005Z,99771.89
2019-05-01T00:17:46.948Z,99768.36
2019-05-01T00:20:49.025Z,99771.98
2019-05-01T00:23:50.952Z,99769.55
2019-05-01T00:26:52.923Z,99766.55
2019-05-01T00:29:54.841Z,99773.73
2019-05-01T00:32:56.824Z,99770.19
2019-05-01T00:35:58.807Z,99767.22
2019-05-01T00:39:01.294Z,99769.16
2019-05-01T00:42:05.032Z,99769.75
2019-05-01T00:45:07.672Z,99773.92
2019-05-01T00:48:10.965Z,99769.58
2019-05-01T00:51:12.883Z,99767.70
2019-05-01T00:54:14.884Z,99768.28
2019-05-01T00:57:27.733Z,99769.69
2019-05-01T01:00:47.871Z,99770.56
2019-05-01T01:03:50.116Z,99766.22
2019-05-01T01:06:52.180Z,99769.27
2019-05-01T01:09:54.171Z,99770.09
2019-05-01T01:12:56.288Z,99767.91
2019-05-01T01:15:58.223Z,99764.87
2019-05-01T01:19:00.148Z,99766.80
2019-05-01T01:22:02.117Z,99764.91
2019-05-01T01:25:05.389Z,99767.38
2019-05-01T01:28:07.409Z,99767.11
2019-05-01T01:31:09.344Z,99765.75
2019-05-01T01:34:11.311Z,99763.82
2019-05-01T01:37:13.368Z,99761.62
2019-05-01T01:40:15.270Z,99768.78
2019-05-01T01:43:36.040Z,99763.30
2019-05-01T01:46:40.219Z,99769.34
2019-05-01T01:49:42.309Z,99769.37
2019-05-01T01:52:44.248Z,99767.73
2019-05-01T01:55:47.945Z,99772.13
2019-05-01T01:58:51.254Z,99777.84
2019-05-01T02:01:55.233Z,99768.80
2019-05-01T02:05:04.792Z,99767.13
2019-05-01T02:08:08.938Z,99770.40
2019-05-01T02:11:11.096Z,99759.45
2019-05-01T02:14:13.583Z,99764.92
2019-05-01T02:17:15.527Z,99763.26
2019-05-01T02:20:19.516Z,99763.82
2019-05-01T02:23:21.435Z,99756.41
2019-05-01T02:26:26.585Z,99755.32
2019-05-01T02:29:37.404Z,99753.10
2019-05-01T02:32:39.834Z,99747.92
2019-05-01T02:35:42.854Z,99745.16
2019-05-01T02:38:46.812Z,99740.80
2019-05-01T02:41:51.631Z,99733.66
2019-05-01T02:44:57.520Z,99734.75
2019-05-01T02:48:00.119Z,99730.64
2019-05-01T02:51:04.272Z,99736.38
2019-05-01T02:54:07.781Z,99730.62
2019-05-01T02:57:12.988Z,99735.28
2019-05-01T03:00:17.095Z,99739.94
2019-05-01T03:03:19.048Z,99732.28
2019-05-01T03:06:21.037Z,99745.14
2019-05-01T03:09:23.320Z,99735.27
2019-05-01T03:12:28.880Z,99737.75
2019-05-01T03:15:34.477Z,99734.20
2019-05-01T03:18:44.512Z,99728.73
2019-05-01T03:21:48.236Z,99728.73
2019-05-01T03:24:50.905Z,99729.27
2019-05-01T03:27:52.976Z,99733.40
2019-05-01T03:30:55.396Z,99739.16
2019-05-01T03:33:58.587Z,99731.52
2019-05-01T03:37:03.694Z,99737.55
2019-05-01T03:40:05.856Z,99735.89
2019-05-01T03:43:07.784Z,99743.86
2019-05-01T03:46:10.037Z,99751.80
2019-05-01T03:49:12.206Z,99741.72
2019-05-01T03:52:14.402Z,99734.84
2019-05-01T03:55:16.529Z,99737.21
2019-05-01T03:58:18.552Z,99733.18
2019-05-01T04:01:25.183Z,99739.73
2019-05-01T04:04:30.920Z,99730.09
2019-05-01T04:07:36.205Z,99726.80
2019-05-01T04:10:37.317Z,99729.22
2019-05-01T04:13:39.296Z,99724.32
2019-05-01T04:16:43.301Z,99714.09
2019-05-01T04:19:45.356Z,99712.52
2019-05-01T04:22:47.797Z,99712.82
2019-05-01T04:25:50.235Z,99723.51
2019-05-01T04:28:54.994Z,99725.14
2019-05-01T04:31:59.323Z,99717.98
2019-05-01T04:39:06.996Z,99718.58
2019-05-01T04:42:09.081Z,99711.41
2019-05-01T04:45:11.073Z,99720.15
2019-05-01T04:48:13.434Z,99717.58
2019-05-01T04:51:15.471Z,99717.38
2019-05-01T04:54:17.586Z,99723.95
2019-05-01T04:57:19.635Z,99726.42
2019-05-01T05:00:21.733Z,99717.73
2019-05-01T05:03:25.477Z,99718.22
2019-05-01T05:06:27.630Z,99716.66
2019-05-01T05:09:38.086Z,99718.99
2019-05-01T05:12:51.877Z,99708.39
2019-05-01T05:15:55.584Z,99717.06
2019-05-01T05:18:57.781Z,99722.96
2019-05-01T05:21:59.778Z,99723.22
2019-05-01T05:25:01.716Z,99729.77
2019-05-01T05:28:03.669Z,99729.39
2019-05-01T05:31:09.225Z,99722.87
2019-05-01T05:34:13.467Z,99719.85
2019-05-01T05:37:20.325Z,99718.36
2019-05-01T05:40:24.355Z,99719.63
2019-05-01T05:43:26.588Z,99721.61
2019-05-01T05:46:28.865Z,99721.52
2019-05-01T05:49:31.682Z,99719.48
2019-05-01T05:52:43.982Z,99720.06
2019-05-01T05:55:49.624Z,99710.36
2019-05-01T05:59:14.461Z,99718.19
2019-05-01T06:02:21.848Z,99717.84
2019-05-01T06:05:32.423Z,99712.27
2019-05-01T06:08:38.030Z,99714.30
2019-05-01T06:11:58.841Z,99711.02
2019-05-01T06:15:21.087Z,99713.20
2019-05-01T06:18:34.755Z,99712.90
2019-05-01T06:21:40.514Z,99708.03
2019-05-01T06:24:49.679Z,99709.83
2019-05-01T06:27:51.637Z,99711.20
2019-05-01T06:30:55.384Z,99706.46
2019-05-01T06:33:57.419Z,99715.49
2019-05-01T06:36:59.405Z,99703.84
2019-05-01T06:40:03.138Z,99709.63
2019-05-01T06:43:09.623Z,99703.39
2019-05-01T06:46:13.541Z,99706.70
2019-05-01T06:49:24.219Z,99704.45
2019-05-01T06:52:29.369Z,99698.45
2019-05-01T06:55:30.720Z,99704.81
2019-05-01T06:58:32.947Z,99705.27
2019-05-01T07:01:39.858Z,99704.50
2019-05-01T07:04:46.058Z,99708.83
2019-05-01T07:07:53.246Z,99701.30
2019-05-01T07:10:52.666Z,99705.76
2019-05-01T07:13:55.930Z,99703.39
2019-05-01T07:16:58.066Z,99707.88
2019-05-01T07:20:19.517Z,99701.48
2019-05-01T07:23:21.566Z,99699.89
2019-05-01T07:26:23.551Z,99704.66
2019-05-01T07:29:27.490Z,99698.14
2019-05-01T07:32:29.630Z,99696.63
2019-05-01T07:35:33.025Z,99698.77
2019-05-01T07:38:38.460Z,99691.09
2019-05-01T07:41:40.795Z,99694.92
2019-05-01T07:44:44.669Z,99688.89
2019-05-01T07:47:51.384Z,99697.28
2019-05-01T07:50:53.452Z,99696.54
2019-05-01T07:53:59.097Z,99691.20
2019-05-01T07:57:03.240Z,99689.91
2019-05-01T08:00:09.456Z,99698.96
2019-05-01T08:03:11.433Z,99704.71
2019-05-01T08:06:16.132Z,99693.72
2019-05-01T08:09:17.289Z,99693.65
2019-05-01T08:12:24.090Z,99700.52
2019-05-01T08:15:27.628Z,99696.13
2019-05-01T08:18:36.250Z,99698.14
2019-05-01T08:21:40.190Z,99698.91
2019-05-01T08:24:44.147Z,99699.34
2019-05-01T08:27:55.596Z,99693.33
2019-05-01T08:30:59.308Z,99698.89
2019-05-01T08:34:03.001Z,99699.19
2019-05-01T08:37:06.522Z,99696.41
2019-05-01T08:40:09.361Z,99691.79
2019-05-01T08:43:13.664Z,99693.59
2019-05-01T08:46:33.771Z,99686.45
2019-05-01T08:49:42.212Z,99687.98
2019-05-01T08:52:42.729Z,99688.01
2019-05-01T08:55:47.030Z,99685.17
2019-05-01T08:58:50.517Z,99687.23
2019-05-01T09:02:08.559Z,99681.38
2019-05-01T09:05:02.366Z,99691.33
2019-05-01T09:08:00.814Z,99689.69
2019-05-01T09:11:02.814Z,99683.22
2019-05-01T09:14:04.853Z,99681.91
2019-05-01T09:17:06.903Z,99673.17
2019-05-01T09:20:10.236Z,99671.13
2019-05-01T09:23:14.346Z,99681.69
2019-05-01T09:26:18.153Z,99675.73
2019-05-01T09:29:38.706Z,99668.30
2019-05-01T09:32:40.913Z,99664.70
2019-05-01T09:35:45.436Z,99662.33
2019-05-01T09:38:49.888Z,99654.95
2019-05-01T09:41:50.816Z,99652.81
2019-05-01T09:44:52.785Z,99648.20
2019-05-01T09:47:54.826Z,99647.45
2019-05-01T09:51:00.916Z,99640.88
2019-05-01T09:54:13.519Z,99635.47
2019-05-01T09:57:15.471Z,99629.91
2019-05-01T10:00:19.707Z,99633.86
2019-05-01T10:03:21.707Z,99634.34
2019-05-01T10:06:23.633Z,99629.70
2019-05-01T10:09:26.894Z,99625.02
2019-05-01T10:12:29.314Z,99628.35
2019-05-01T10:15:31.528Z,99631.62
2019-05-01T10:18:33.884Z,99634.22
2019-05-01T10:21:36.020Z,99631.81
2019-05-01T10:24:39.376Z,99626.17
2019-05-01T10:27:43.323Z,99619.13
2019-05-01T10:30:59.039Z,99619.95
2019-05-01T10:34:19.441Z,99618.95
2019-05-01T10:37:23.637Z,99616.09
2019-05-01T10:40:26.955Z,99615.53
2019-05-01T10:43:29.347Z,99609.28
2019-05-01T10:46:31.395Z,99609.18
2019-05-01T10:49:33.344Z,99599.78
2019-05-01T10:52:35.883Z,99606.02
2019-05-01T10:55:37.822Z,99606.00
2019-05-01T10:58:39.868Z,99595.68
2019-05-01T11:01:46.393Z,99600.59
2019-05-01T11:04:48.435Z,99596.52
2019-05-01T11:07:50.595Z,99592.41
2019-05-01T11:10:52.553Z,99592.97
2019-05-01T11:13:54.580Z,99593.67
2019-05-01T11:16:56.648Z,99587.95
2019-05-01T11:19:59.593Z,99587.64
2019-05-01T11:23:01.720Z,99585.39
2019-05-01T11:26:03.673Z,99584.03
2019-05-01T11:29:05.811Z,99577.83
2019-05-01T11:32:26.306Z,99572.11
2019-05-01T11:35:45.525Z,99573.30
2019-05-01T11:38:49.400Z,99564.41
2019-05-01T11:41:59.480Z,99560.41
2019-05-01T11:45:01.469Z,99559.77
2019-05-01T11:48:03.408Z,99564.38
2019-05-01T11:51:05.430Z,99554.13
2019-05-01T11:54:07.431Z,99551.75
2019-05-01T11:57:09.441Z,99550.86
2019-05-01T12:00:13.900Z,99547.73
2019-05-01T12:03:15.917Z,99542.11
2019-05-01T12:06:23.095Z,99549.89
2019-05-01T12:09:21.812Z,99542.61
2019-05-01T12:12:25.618Z,99539.00
2019-05-01T12:15:27.601Z,99534.95
2019-05-01T12:18:29.605Z,99542.48
2019-05-01T12:21:31.600Z,99546.13
2019-05-01T12:24:33.757Z,99543.13
2019-05-01T12:27:35.713Z,99539.01
2019-05-01T12:30:37.751Z,99529.35
2019-05-01T12:33:39.710Z,99526.98
2019-05-01T12:36:43.014Z,99526.89
2019-05-01T12:39:45.467Z,99524.14
2019-05-01T12:42:47.518Z,99526.13
2019-05-01T12:45:51.293Z,99520.54
2019-05-01T12:48:53.287Z,99522.27
2019-05-01T12:52:09.903Z,99525.59
2019-05-01T12:55:03.043Z,99512.87
2019-05-01T12:58:05.007Z,99516.91
2019-05-01T13:01:07.160Z,99519.36
2019-05-01T13:04:09.134Z,99511.50
2019-05-01T13:07:12.711Z,99514.95
2019-05-01T13:10:15.073Z,99514.79
2019-05-01T13:13:17.656Z,99497.50
2019-05-01T13:16:19.706Z,99506.90
2019-05-01T13:19:21.668Z,99495.50
2019-05-01T13:22:23.596Z,99481.21
2019-05-01T13:25:25.776Z,99485.26
2019-05-01T13:28:41.407Z,99483.81
2019-05-01T13:31:51.239Z,99485.53
2019-05-01T13:34:53.202Z,99480.20
2019-05-01T13:37:55.225Z,99475.39
2019-05-01T13:40:57.236Z,99476.34
2019-05-01T13:43:59.227Z,99455.77
2019-05-01T13:47:01.158Z,99460.37
2019-05-01T13:50:06.615Z,99473.38
2019-05-01T13:53:08.603Z,99472.97
2019-05-01T13:56:11.244Z,99468.72
2019-05-01T13:59:15.010Z,99476.89
2019-05-01T14:02:17.036Z,99473.94
2019-05-01T14:05:19.399Z,99469.59
2019-05-01T14:08:21.395Z,99459.52
2019-05-01T14:11:23.368Z,99457.25
2019-05-01T14:14:25.640Z,99450.39
2019-05-01T14:17:27.597Z,99445.87
2019-05-01T14:20:34.182Z,99454.18
2019-05-01T14:23:50.370Z,99451.63
2019-05-01T14:26:52.489Z,99451.63
2019-05-01T14:29:54.469Z,99449.84
2019-05-01T14:32:56.438Z,99446.11
2019-05-01T14:35:58.357Z,99458.33
2019-05-01T14:39:00.686Z,99437.56
2019-05-01T14:42:02.641Z,99450.90
2019-05-01T14:45:08.399Z,99441.03
2019-05-01T14:48:10.302Z,99439.33
2019-05-01T14:51:12.328Z,99444.50
2019-05-01T14:54:14.262Z,99439.12
2019-05-01T14:57:16.245Z,99435.52
2019-05-01T15:00:19.107Z,99437.41
2019-05-01T15:03:21.030Z,99431.91
2019-05-01T15:06:22.990Z,99415.47
2019-05-01T15:09:24.965Z,99424.95
2019-05-01T15:12:26.899Z,99427.49
2019-05-01T15:15:39.822Z,99429.92
2019-05-01T15:18:46.360Z,99415.25
2019-05-01T15:21:48.320Z,99413.10
2019-05-01T15:24:50.305Z,99412.73
2019-05-01T15:27:52.387Z,99411.44
2019-05-01T15:30:54.302Z,99413.77
2019-05-01T15:33:56.258Z,99408.86
2019-05-01T15:36:58.258Z,99401.05
2019-05-01T15:40:02.359Z,99402.50
2019-05-01T15:43:06.125Z,99404.88
2019-05-01T15:46:08.150Z,99410.00
2019-05-01T15:49:10.127Z,99409.23
2019-05-01T15:52:12.095Z,99398.80
2019-05-01T15:55:14.148Z,99382.52
2019-05-01T15:58:16.404Z,99393.54
2019-05-01T16:01:18.329Z,99395.86
2019-05-01T16:04:20.387Z,99387.80
2019-05-01T16:07:22.308Z,99399.42
2019-05-01T16:10:26.140Z,99395.47
2019-05-01T16:13:28.060Z,99380.15
2019-05-01T16:16:30.064Z,99381.57
2019-05-01T16:19:32.024Z,99384.44
2019-05-01T16:22:34.186Z,99381.92
2019-05-01T16:25:37.519Z,99371.77
2019-05-01T16:28:39.593Z,99378.70
2019-05-01T16:31:41.544Z,99364.08
2019-05-01T16:34:43.472Z,99370.81
2019-05-01T16:37:45.503Z,99371.05
2019-05-01T16:40:51.839Z,99367.58
2019-05-01T16:43:53.776Z,99375.03
2019-05-01T16:46:55.818Z,99372.23
2019-05-01T16:49:57.798Z,99368.66
2019-05-01T16:53:00.759Z,99370.39
2019-05-01T16:56:02.791Z,99364.95
2019-05-01T16:59:04.830Z,99366.35
2019-05-01T17:02:14.528Z,99368.33
2019-05-01T17:05:24.555Z,99360.67
2019-05-01T17:08:36.527Z,99366.94
2019-05-01T17:11:35.303Z,99357.67
2019-05-01T17:14:39.925Z,99364.16
2019-05-01T17:17:41.950Z,99368.80
2019-05-01T17:20:43.914Z,99363.94
2019-05-01T17:23:45.915Z,99360.47
2019-05-01T17:26:47.846Z,99362.55
2019-05-01T17:29:49.935Z,99358.50
2019-05-01T17:32:51.937Z,99353.49
2019-05-01T17:35:54.274Z,99361.61
2019-05-01T17:38:58.089Z,99364.13
2019-05-01T17:42:02.037Z,99365.48
2019-05-01T17:45:07.122Z,99360.63
2019-05-01T17:48:09.146Z,99361.21
2019-05-01T17:51:12.969Z,99357.38
2019-05-01T17:54:14.870Z,99365.92
2019-05-01T17:57:16.802Z,99360.14
2019-05-01T18:00:26.724Z,99358.05
2019-05-01T18:03:47.028Z,99363.81
2019-05-01T18:06:50.430Z,99367.25
2019-05-01T18:09:55.692Z,99365.80
2019-05-01T18:12:56.653Z,99369.52
2019-05-01T18:16:00.293Z,99375.37
2019-05-01T18:19:04.034Z,99372.02
2019-05-01T18:22:10.913Z,99379.16
2019-05-01T18:25:16.623Z,99380.88
2019-05-01T18:28:38.874Z,99378.81
2019-05-01T18:31:41.072Z,99377.25
2019-05-01T18:34:43.553Z,99383.72
2019-05-01T18:37:50.573Z,99391.78
2019-05-01T18:40:54.743Z,99394.13
2019-05-01T18:43:57.169Z,99385.38
2019-05-01T18:47:01.253Z,99396.64
2019-05-01T18:50:06.308Z,99394.59
2019-05-01T18:53:11.506Z,99395.58
2019-05-01T18:56:12.602Z,99397.89
2019-05-01T18:59:16.065Z,99398.39
2019-05-01T19:02:20.405Z,99403.61
2019-05-01T19:05:22.929Z,99402.71
2019-05-01T19:08:24.917Z,99402.98
2019-05-01T19:11:27.006Z,99398.83
2019-05-01T19:14:30.809Z,99397.63
2019-05-01T19:17:32.988Z,99395.92
2019-05-01T19:20:39.988Z,99395.78
2019-05-01T19:23:45.237Z,99398.96
2019-05-01T19:26:48.353Z,99399.68
2019-05-01T19:29:50.622Z,99402.55
2019-05-01T19:32:52.749Z,99391.81
2019-05-01T19:36:08.052Z,99394.75
2019-05-01T19:39:11.488Z,99388.55
2019-05-01T19:42:11.255Z,99388.64
2019-05-01T19:45:18.451Z,99388.32
2019-05-01T19:48:20.713Z,99382.01
2019-05-01T19:51:26.028Z,99377.05
2019-05-01T19:54:30.066Z,99380.02
2019-05-01T19:57:36.703Z,99376.24
2019-05-01T20:00:51.263Z,99379.09
2019-05-01T20:03:54.943Z,99383.34
2019-05-01T20:06:57.975Z,99385.81
2019-05-01T20:10:00.071Z,99384.72
2019-05-01T20:13:02.403Z,99382.61
2019-05-01T20:16:07.820Z,99382.70
2019-05-01T20:19:10.482Z,99389.88
2019-05-01T20:22:15.383Z,99382.55
2019-05-01T20:25:19.493Z,99380.39
2019-05-01T20:28:22.453Z,99382.02
2019-05-01T20:31:30.684Z,99378.61
2019-05-01T20:34:33.301Z,99377.30
2019-05-01T20:37:35.226Z,99375.12
2019-05-01T20:40:38.751Z,99378.05
2019-05-01T20:43:43.615Z,99372.86
2019-05-01T20:46:44.732Z,99369.91
2019-05-01T20:49:46.969Z,99377.98
2019-05-01T20:52:51.004Z,99370.25
2019-05-01T20:55:57.910Z,99375.94
2019-05-01T20:59:03.136Z,99372.52
2019-05-01T21:02:08.041Z,99370.23
2019-05-01T21:05:11.506Z,99372.67
2019-05-01T21:08:18.033Z,99369.61
2019-05-01T21:11:24.582Z,99369.84
2019-05-01T21:14:26.527Z,99367.02
2019-05-01T21:17:28.533Z,99359.14
2019-05-01T21:20:30.530Z,99359.14
2019-05-01T21:23:33.459Z,99359.68
2019-05-01T21:26:35.596Z,99361.97
2019-05-01T21:29:38.175Z,99360.63
2019-05-01T21:32:40.263Z,99364.11
2019-05-01T21:35:44.341Z,99359.95
2019-05-01T21:38:46.152Z,99362.35
2019-05-01T21:41:48.840Z,99362.91
2019-05-01T21:44:50.727Z,99363.64
2019-05-01T21:47:52.960Z,99364.02
2019-05-01T21:50:58.067Z,99364.12
2019-05-01T21:53:58.943Z,99366.41
2019-05-01T21:57:00.912Z,99361.70
2019-05-01T22:00:05.813Z,99362.22
2019-05-01T22:03:09.634Z,99362.73
2019-05-01T22:06:15.438Z,99355.61
2019-05-01T22:09:21.444Z,99359.76
2019-05-01T22:12:23.694Z,99361.64
2019-05-01T22:15:36.831Z,99359.45
2019-05-01T22:18:46.361Z,99354.16
2019-05-01T22:22:06.753Z,99344.23
2019-05-01T22:25:25.912Z,99356.45
2019-05-01T22:28:32.581Z,99351.96
2019-05-01T22:31:52.821Z,99346.35
2019-05-01T22:34:57.074Z,99352.46
2019-05-01T22:37:59.074Z,99351.73
2019-05-01T22:41:11.666Z,99354.65
2019-05-01T22:44:17.923Z,99349.27
2019-05-01T22:47:17.476Z,99353.67
2019-05-01T22:50:19.398Z,99345.42
2019-05-01T22:53:21.327Z,99347.34
2019-05-01T22:56:23.309Z,99345.55
2019-05-01T22:59:25.271Z,99336.80
2019-05-01T23:02:37.837Z,99337.09
2019-05-01T23:05:39.757Z,99340.87
2019-05-01T23:08:41.659Z,99333.33
2019-05-01T23:11:45.424Z,99332.25
2019-05-01T23:14:47.560Z,99327.70
2019-05-01T23:17:50.298Z,99322.19
2019-05-01T23:20:52.257Z,99325.29
2019-05-01T23:23:56.935Z,99323.91
2019-05-01T23:26:58.148Z,99321.15
2019-05-01T23:30:00.636Z,99316.84
2019-05-01T23:33:02.611Z,99316.53
2019-05-01T23:36:04.664Z,99317.44
2019-05-01T23:39:06.828Z,99310.77
2019-05-01T23:42:08.783Z,99307.27
2019-05-01T23:45:10.907Z,99308.42
2019-05-01T23:48:12.872Z,99303.47
2019-05-01T23:51:14.799Z,99302.42
2019-05-01T23:54:16.745Z,99294.14
2019-05-01T23:57:19.928Z,99291.38
